Time;durP1;ratioP1;P1;durP2;ratioP2;P2;SDS_P1;SDS_P2;PMS_P1;PMS_P2;Temp;Humidity;BMP_temperature;BMP_pressure;BME280_temperature;BME280_humidity;BME280_pressure;Samples;Min_cycle;Max_cycle;Signal;HPM_P1;HPM_P2
2021/08/07 00:00:50;;;;;;;12.50;11.60;;;;;;;;;;3586748;40;20051;-66
2021/08/07 00:03:16;;;;;;;13.85;10.43;;;;;;;;;;3584216;40;20077;-66
2021/08/07 00:05:42;;;;;;;11.35;10.45;;;;;;;;;;3586065;40;20041;-67
2021/08/07 00:08:08;;;;;;;13.38;12.52;;;;;;;;;;3586970;40;20033;-67
2021/08/07 00:10:33;;;;;;;10.32;9.52;;;;;;;;;;3586468;40;20028;-66
2021/08/07 00:13:00;;;;;;;10.02;9.23;;;;;;;;;;3587363;40;20146;-66
2021/08/07 00:15:26;;;;;;;10.13;8.50;;;;;;;;;;3586198;40;20125;-66
2021/08/07 00:17:51;;;;;;;13.18;12.27;;;;;;;;;;3587044;40;20028;-67
2021/08/07 00:20:16;;;;;;;12.80;12.00;;;;;;;;;;3586903;40;20395;-66
2021/08/07 00:22:42;;;;;;;14.82;13.52;;;;;;;;;;3586519;40;20050;-66
2021/08/07 00:25:08;;;;;;;16.30;15.35;;;;;;;;;;3585352;40;20043;-67
2021/08/07 00:27:33;;;;;;;15.88;14.77;;;;;;;;;;3586019;40;20140;-67
2021/08/07 00:29:59;;;;;;;13.40;12.50;;;;;;;;;;3586375;40;20037;-66
2021/08/07 00:32:24;;;;;;;11.07;10.32;;;;;;;;;;3586466;40;20036;-66
2021/08/07 00:34:49;;;;;;;17.95;16.65;;;;;;;;;;3586136;40;20029;-67
2021/08/07 00:37:15;;;;;;;12.18;11.38;;;;;;;;;;3586778;40;20055;-66
2021/08/07 00:39:40;;;;;;;7.78;7.07;;;;;;;;;;3586009;40;20048;-66
2021/08/07 00:42:05;;;;;;;11.82;10.68;;;;;;;;;;3586504;40;20048;-66
2021/08/07 00:44:31;;;;;;;6.35;5.85;;;;;;;;;;3586049;40;20052;-67
2021/08/07 00:46:56;;;;;;;10.60;9.35;;;;;;;;;;3586915;40;20028;-66
2021/08/07 00:49:22;;;;;;;6.68;6.18;;;;;;;;;;3586784;40;20076;-66
2021/08/07 00:51:48;;;;;;;7.53;6.95;;;;;;;;;;3586009;40;20055;-66
2021/08/07 00:54:14;;;;;;;7.47;6.88;;;;;;;;;;3585771;40;20055;-66
2021/08/07 00:56:40;;;;;;;8.32;7.22;;;;;;;;;;3585987;40;20083;-67
2021/08/07 00:59:05;;;;;;;5.85;5.25;;;;;;;;;;3585343;40;20627;-67
2021/08/07 01:01:43;;;;;;;6.47;5.97;;;;;;;;;;3585775;40;20040;-66
2021/08/07 01:04:16;;;;;;;6.30;5.70;;;;;;;;;;3585931;40;20580;-66
2021/08/07 01:07:03;;;;;;;4.95;4.43;;;;;;;;;;3585258;40;20033;-66
2021/08/07 01:09:32;;;;;;;6.10;5.47;;;;;;;;;;3585563;40;20138;-66
2021/08/07 01:12:02;;;;;;;5.80;5.20;;;;;;;;;;3587320;40;20037;-66
2021/08/07 01:14:35;;;;;;;5.68;5.03;;;;;;;;;;3589891;40;20074;-66
2021/08/07 01:17:04;;;;;;;5.82;4.90;;;;;;;;;;3589279;40;20032;-66
2021/08/07 01:19:56;;;;;;;5.03;4.53;;;;;;;;;;3589400;40;20032;-65
2021/08/07 01:22:26;;;;;;;8.40;3.78;;;;;;;;;;3585759;40;20052;-65
2021/08/07 01:24:59;;;;;;;5.63;4.60;;;;;;;;;;3589205;40;20074;-66
2021/08/07 01:27:28;;;;;;;8.38;4.32;;;;;;;;;;3587210;40;20073;-66
2021/08/07 01:29:56;;;;;;;5.40;4.90;;;;;;;;;;3589586;40;20041;-66
2021/08/07 01:32:31;;;;;;;5.18;4.68;;;;;;;;;;3588182;40;20053;-66
2021/08/07 01:34:58;;;;;;;5.55;5.05;;;;;;;;;;3589243;40;20076;-66
2021/08/07 01:37:24;;;;;;;3.92;3.53;;;;;;;;;;3589632;40;20037;-67
2021/08/07 01:39:53;;;;;;;4.65;4.05;;;;;;;;;;3588212;40;20121;-67
2021/08/07 01:42:18;;;;;;;4.55;4.15;;;;;;;;;;3588399;40;20035;-66
2021/08/07 01:44:44;;;;;;;4.82;4.32;;;;;;;;;;3588754;40;20311;-66
2021/08/07 01:47:19;;;;;;;4.40;3.92;;;;;;;;;;3588768;40;20095;-67
2021/08/07 01:49:58;;;;;;;5.82;3.90;;;;;;;;;;3589260;40;20060;-67
2021/08/07 01:52:27;;;;;;;7.05;4.93;;;;;;;;;;3589329;40;20051;-65
2021/08/07 01:54:57;;;;;;;4.75;4.25;;;;;;;;;;3588958;40;20100;-66
2021/08/07 01:57:25;;;;;;;4.47;4.07;;;;;;;;;;3589166;40;20060;-66
2021/08/07 01:59:52;;;;;;;4.95;4.15;;;;;;;;;;3589309;40;20059;-65
2021/08/07 02:02:18;;;;;;;10.90;4.70;;;;;;;;;;3589232;40;20077;-65
2021/08/07 02:04:44;;;;;;;7.18;5.15;;;;;;;;;;3589105;40;20069;-66
2021/08/07 02:07:11;;;;;;;5.95;4.20;;;;;;;;;;3589057;40;20037;-65
2021/08/07 02:09:38;;;;;;;4.95;4.55;;;;;;;;;;3589429;40;20024;-67
2021/08/07 02:12:05;;;;;;;5.43;4.70;;;;;;;;;;3587721;40;20071;-66
2021/08/07 02:14:31;;;;;;;4.72;4.20;;;;;;;;;;3588698;40;20065;-66
2021/08/07 02:17:01;;;;;;;9.10;4.38;;;;;;;;;;3589298;40;20494;-66
2021/08/07 02:19:27;;;;;;;5.05;4.43;;;;;;;;;;3588697;40;20036;-65
2021/08/07 02:21:54;;;;;;;5.50;3.67;;;;;;;;;;3588367;40;20119;-66
2021/08/07 02:24:26;;;;;;;5.25;4.20;;;;;;;;;;3586079;40;20117;-66
2021/08/07 02:26:53;;;;;;;4.60;3.88;;;;;;;;;;3586793;40;20383;-66
2021/08/07 02:29:19;;;;;;;4.43;3.80;;;;;;;;;;3587810;40;20039;-66
2021/08/07 02:31:46;;;;;;;4.50;3.92;;;;;;;;;;3586909;40;20111;-66
2021/08/07 02:34:12;;;;;;;4.53;3.85;;;;;;;;;;3587583;40;20125;-67
2021/08/07 02:36:39;;;;;;;4.82;3.83;;;;;;;;;;3586944;40;20047;-67
2021/08/07 02:39:05;;;;;;;5.40;4.03;;;;;;;;;;3586951;40;20028;-66
2021/08/07 02:41:31;;;;;;;4.75;4.10;;;;;;;;;;3586900;40;20069;-66
2021/08/07 02:43:57;;;;;;;4.82;3.63;;;;;;;;;;3586707;40;20037;-66
2021/08/07 02:46:23;;;;;;;4.32;3.92;;;;;;;;;;3586456;40;20043;-66
2021/08/07 02:48:50;;;;;;;4.95;3.88;;;;;;;;;;3585402;40;20039;-67
2021/08/07 02:51:15;;;;;;;6.20;3.83;;;;;;;;;;3586468;40;20053;-67
2021/08/07 02:53:42;;;;;;;6.18;4.22;;;;;;;;;;3587297;40;20067;-67
2021/08/07 02:56:08;;;;;;;4.82;3.47;;;;;;;;;;3587128;40;20040;-67
2021/08/07 02:58:33;;;;;;;4.50;3.58;;;;;;;;;;3583256;40;20291;-67
2021/08/07 03:00:58;;;;;;;9.90;7.78;;;;;;;;;;3586871;40;20044;-66
2021/08/07 03:03:24;;;;;;;7.80;5.47;;;;;;;;;;3583719;40;20361;-66
2021/08/07 03:05:49;;;;;;;6.75;4.38;;;;;;;;;;3587502;40;20357;-66
2021/08/07 03:08:15;;;;;;;5.95;4.60;;;;;;;;;;3585602;40;20032;-66
2021/08/07 03:10:41;;;;;;;5.43;4.78;;;;;;;;;;3585483;40;20462;-67
2021/08/07 03:13:06;;;;;;;5.68;4.55;;;;;;;;;;3585808;40;20391;-66
2021/08/07 03:15:32;;;;;;;4.30;3.90;;;;;;;;;;3586696;40;20045;-67
2021/08/07 03:17:57;;;;;;;5.07;4.57;;;;;;;;;;3586854;40;20399;-67
2021/08/07 03:20:30;;;;;;;4.93;4.28;;;;;;;;;;3586964;40;20031;-66
2021/08/07 03:22:58;;;;;;;5.32;3.90;;;;;;;;;;3586435;40;20089;-67
2021/08/07 03:25:23;;;;;;;5.85;4.22;;;;;;;;;;3586708;40;20064;-66
2021/08/07 03:27:49;;;;;;;5.18;4.03;;;;;;;;;;3586622;40;20025;-66
2021/08/07 03:30:14;;;;;;;5.18;4.00;;;;;;;;;;3589000;40;20043;-66
2021/08/07 03:32:39;;;;;;;5.57;5.07;;;;;;;;;;3586606;40;20051;-66
2021/08/07 03:35:05;;;;;;;5.05;4.53;;;;;;;;;;3585176;40;20315;-66
2021/08/07 03:37:31;;;;;;;6.35;4.60;;;;;;;;;;3585809;40;20061;-67
2021/08/07 03:39:56;;;;;;;8.25;5.07;;;;;;;;;;3586787;40;20044;-66
2021/08/07 03:42:22;;;;;;;6.20;4.72;;;;;;;;;;3586198;40;20035;-66
2021/08/07 03:44:47;;;;;;;9.55;5.35;;;;;;;;;;3585278;40;20327;-67
2021/08/07 03:47:14;;;;;;;6.25;5.65;;;;;;;;;;3587150;40;20380;-68
2021/08/07 03:49:40;;;;;;;7.00;5.40;;;;;;;;;;3586357;40;20024;-67
2021/08/07 03:52:05;;;;;;;6.78;5.75;;;;;;;;;;3586960;40;20401;-67
2021/08/07 03:54:31;;;;;;;6.80;6.10;;;;;;;;;;3584654;40;20041;-67
2021/08/07 03:56:56;;;;;;;7.00;6.22;;;;;;;;;;3586902;40;20117;-68
2021/08/07 03:59:21;;;;;;;7.05;5.55;;;;;;;;;;3586694;40;20245;-67
2021/08/07 04:01:47;;;;;;;6.20;5.43;;;;;;;;;;3586819;40;20044;-67
2021/08/07 04:04:12;;;;;;;9.07;5.32;;;;;;;;;;3585382;40;20048;-68
2021/08/07 04:06:38;;;;;;;9.38;8.45;;;;;;;;;;3585739;40;20044;-67
2021/08/07 04:09:03;;;;;;;7.13;6.53;;;;;;;;;;3586873;40;20025;-67
2021/08/07 04:11:28;;;;;;;8.52;6.05;;;;;;;;;;3588522;40;20029;-68
2021/08/07 04:13:54;;;;;;;19.02;17.15;;;;;;;;;;3586304;40;20241;-67
2021/08/07 04:16:19;;;;;;;12.10;11.00;;;;;;;;;;3586583;40;20376;-67
2021/08/07 04:18:45;;;;;;;184.02;168.32;;;;;;;;;;3586600;40;20028;-66
2021/08/07 04:21:10;;;;;;;283.10;258.92;;;;;;;;;;3586615;40;20028;-66
2021/08/07 04:23:35;;;;;;;201.38;187.13;;;;;;;;;;3586181;40;20068;-67
2021/08/07 04:26:01;;;;;;;553.53;169.43;;;;;;;;;;3585303;40;20190;-67
2021/08/07 04:28:26;;;;;;;316.15;64.35;;;;;;;;;;3585695;40;20395;-67
2021/08/07 04:30:52;;;;;;;783.22;282.30;;;;;;;;;;3584298;40;20043;-67
2021/08/07 04:33:17;;;;;;;94.50;89.43;;;;;;;;;;3585652;40;20544;-68
2021/08/07 04:35:43;;;;;;;335.05;98.47;;;;;;;;;;3586189;40;20045;-68
2021/08/07 04:38:09;;;;;;;2.42;1.33;;;;;;;;;;3585898;40;20851;-67
2021/08/07 04:40:35;;;;;;;4.05;1.42;;;;;;;;;;3585800;40;20033;-67
2021/08/07 04:43:00;;;;;;;2.97;1.25;;;;;;;;;;3583703;40;20359;-68
2021/08/07 04:45:26;;;;;;;2.58;1.40;;;;;;;;;;3585748;40;20126;-67
2021/08/07 04:47:54;;;;;;;2.88;1.23;;;;;;;;;;3585499;40;20033;-68
2021/08/07 04:50:21;;;;;;;2.75;1.02;;;;;;;;;;3585302;40;20079;-68
2021/08/07 04:52:46;;;;;;;5.68;2.42;;;;;;;;;;3585662;40;20037;-67
2021/08/07 04:55:12;;;;;;;4.55;1.70;;;;;;;;;;3583654;40;20037;-68
2021/08/07 04:57:37;;;;;;;2.30;1.10;;;;;;;;;;3584120;40;20141;-68
2021/08/07 05:00:03;;;;;;;2.47;1.23;;;;;;;;;;3584407;40;20111;-68
2021/08/07 05:02:28;;;;;;;3.25;1.40;;;;;;;;;;3585903;40;20035;-68
2021/08/07 05:04:54;;;;;;;1.10;0.70;;;;;;;;;;3585856;40;20035;-69
2021/08/07 05:07:19;;;;;;;4.00;1.02;;;;;;;;;;3583874;40;20029;-69
2021/08/07 05:09:44;;;;;;;2.20;1.00;;;;;;;;;;3585877;40;20025;-69
2021/08/07 05:12:10;;;;;;;0.70;0.50;;;;;;;;;;3585563;40;20300;-69
2021/08/07 05:14:35;;;;;;;1.27;0.75;;;;;;;;;;3585479;40;20041;-69
2021/08/07 05:17:00;;;;;;;0.93;0.60;;;;;;;;;;3584790;40;20246;-69
2021/08/07 05:19:26;;;;;;;1.08;0.70;;;;;;;;;;3581315;40;20045;-68
2021/08/07 05:21:51;;;;;;;0.65;0.50;;;;;;;;;;3583034;40;20073;-68
2021/08/07 05:24:17;;;;;;;0.63;0.57;;;;;;;;;;3585197;40;20039;-68
2021/08/07 05:26:42;;;;;;;1.00;0.70;;;;;;;;;;3585858;40;20356;-68
2021/08/07 05:29:07;;;;;;;0.63;0.55;;;;;;;;;;3586540;40;20039;-68
2021/08/07 05:31:33;;;;;;;0.50;0.50;;;;;;;;;;3586536;40;20037;-69
2021/08/07 05:33:58;;;;;;;1.02;0.77;;;;;;;;;;3586113;40;20043;-68
2021/08/07 05:36:23;;;;;;;1.52;0.75;;;;;;;;;;3585120;40;20033;-68
2021/08/07 05:38:49;;;;;;;0.60;0.52;;;;;;;;;;3586119;40;20048;-69
2021/08/07 05:41:14;;;;;;;1.88;0.85;;;;;;;;;;3583785;40;20048;-69
2021/08/07 05:43:40;;;;;;;0.40;0.40;;;;;;;;;;3585010;40;20029;-68
2021/08/07 05:46:05;;;;;;;2.10;1.27;;;;;;;;;;3585263;40;20040;-68
2021/08/07 05:48:33;;;;;;;0.95;0.65;;;;;;;;;;3585843;40;20380;-69
2021/08/07 05:50:59;;;;;;;1.20;0.82;;;;;;;;;;3585966;40;20376;-68
2021/08/07 05:53:25;;;;;;;1.15;0.85;;;;;;;;;;3584920;40;20053;-68
2021/08/07 05:55:55;;;;;;;0.98;0.75;;;;;;;;;;3581927;40;20092;-68
2021/08/07 05:58:22;;;;;;;1.05;0.63;;;;;;;;;;3583955;40;20048;-68
2021/08/07 06:00:48;;;;;;;2.90;0.80;;;;;;;;;;3582598;40;20081;-68
2021/08/07 06:03:13;;;;;;;2.28;0.90;;;;;;;;;;3584211;40;20040;-70
2021/08/07 06:05:39;;;;;;;1.30;0.93;;;;;;;;;;3586500;40;20049;-60
2021/08/07 06:08:04;;;;;;;1.10;0.70;;;;;;;;;;3586865;40;20044;-60
2021/08/07 06:10:30;;;;;;;1.00;0.70;;;;;;;;;;3584072;40;20039;-60
2021/08/07 06:12:55;;;;;;;0.52;0.45;;;;;;;;;;3585120;40;20113;-60
2021/08/07 06:15:21;;;;;;;3.38;0.80;;;;;;;;;;3583107;40;20040;-60
2021/08/07 06:17:46;;;;;;;0.95;0.73;;;;;;;;;;3586689;40;20086;-61
2021/08/07 06:20:13;;;;;;;1.00;0.63;;;;;;;;;;3585657;40;20047;-61
2021/08/07 06:22:39;;;;;;;0.40;0.40;;;;;;;;;;3585172;40;20727;-60
2021/08/07 06:25:06;;;;;;;2.35;0.95;;;;;;;;;;3586376;40;20253;-60
2021/08/07 06:27:32;;;;;;;1.23;0.88;;;;;;;;;;3584697;40;20049;-60
2021/08/07 06:29:57;;;;;;;1.15;0.80;;;;;;;;;;3584733;40;20048;-60
2021/08/07 06:32:23;;;;;;;1.10;0.82;;;;;;;;;;3586365;40;20334;-60
2021/08/07 06:34:48;;;;;;;0.73;0.60;;;;;;;;;;3584878;40;20352;-60
2021/08/07 06:37:13;;;;;;;1.13;0.80;;;;;;;;;;3581366;40;20033;-60
2021/08/07 06:39:39;;;;;;;1.00;0.73;;;;;;;;;;3580882;40;20041;-60
2021/08/07 06:42:05;;;;;;;1.33;0.90;;;;;;;;;;3573753;40;20037;-60
2021/08/07 06:44:30;;;;;;;1.15;0.85;;;;;;;;;;3585767;40;20066;-60
2021/08/07 06:46:55;;;;;;;1.08;0.77;;;;;;;;;;3586919;40;20039;-60
2021/08/07 06:49:21;;;;;;;1.60;1.30;;;;;;;;;;3584912;40;20037;-60
2021/08/07 06:51:47;;;;;;;0.85;0.65;;;;;;;;;;3584717;40;20029;-60
2021/08/07 06:54:13;;;;;;;1.08;0.73;;;;;;;;;;3586986;40;20076;-60
2021/08/07 06:56:38;;;;;;;1.92;0.88;;;;;;;;;;3586915;40;20476;-60
2021/08/07 06:59:04;;;;;;;1.48;1.00;;;;;;;;;;3586088;40;20041;-60
2021/08/07 07:01:29;;;;;;;0.77;0.63;;;;;;;;;;3587072;40;20166;-60
2021/08/07 07:03:54;;;;;;;0.82;0.70;;;;;;;;;;3586975;40;20040;-60
2021/08/07 07:06:20;;;;;;;1.17;0.88;;;;;;;;;;3586272;40;20064;-60
2021/08/07 07:08:45;;;;;;;1.08;0.73;;;;;;;;;;3586527;40;20294;-60
2021/08/07 07:11:10;;;;;;;2.53;1.05;;;;;;;;;;3586641;40;20072;-60
2021/08/07 07:13:36;;;;;;;2.33;0.80;;;;;;;;;;3585712;40;20063;-60
2021/08/07 07:16:02;;;;;;;0.65;0.60;;;;;;;;;;3585939;40;20158;-60
2021/08/07 07:18:28;;;;;;;1.10;0.80;;;;;;;;;;3586647;40;20033;-61
2021/08/07 07:20:53;;;;;;;0.95;0.70;;;;;;;;;;3586853;40;20025;-61
2021/08/07 07:23:18;;;;;;;1.02;0.80;;;;;;;;;;3586771;40;20028;-61
2021/08/07 07:25:44;;;;;;;1.92;0.75;;;;;;;;;;3586515;40;20040;-61
2021/08/07 07:28:09;;;;;;;0.77;0.60;;;;;;;;;;3585795;40;20397;-61
2021/08/07 07:30:35;;;;;;;0.75;0.57;;;;;;;;;;3586639;40;20044;-60
2021/08/07 07:33:00;;;;;;;1.05;0.75;;;;;;;;;;3587288;40;20055;-61
2021/08/07 07:35:26;;;;;;;1.00;0.73;;;;;;;;;;3587055;40;20037;-60
2021/08/07 07:37:51;;;;;;;0.95;0.77;;;;;;;;;;3586330;40;20868;-60
2021/08/07 07:40:16;;;;;;;1.00;0.70;;;;;;;;;;3586049;40;20122;-60
2021/08/07 07:42:42;;;;;;;1.25;0.85;;;;;;;;;;3585633;40;20646;-60
2021/08/07 07:45:08;;;;;;;3.08;1.30;;;;;;;;;;3585822;40;20365;-60
2021/08/07 07:47:34;;;;;;;1.90;1.05;;;;;;;;;;3586374;40;20051;-60
2021/08/07 07:49:59;;;;;;;1.02;0.77;;;;;;;;;;3586930;40;20037;-60
2021/08/07 07:52:24;;;;;;;0.90;0.70;;;;;;;;;;3586675;40;20060;-60
2021/08/07 07:54:50;;;;;;;1.30;0.85;;;;;;;;;;3585794;40;21292;-60
2021/08/07 07:57:15;;;;;;;1.13;0.80;;;;;;;;;;3586726;40;20035;-60
2021/08/07 07:59:40;;;;;;;1.00;0.80;;;;;;;;;;3586818;40;20142;-60
2021/08/07 08:02:06;;;;;;;1.08;0.80;;;;;;;;;;3586655;40;20051;-60
2021/08/07 08:04:32;;;;;;;0.80;0.60;;;;;;;;;;3586728;40;20048;-60
2021/08/07 08:07:00;;;;;;;1.13;0.75;;;;;;;;;;3586783;40;20056;-60
2021/08/07 08:09:26;;;;;;;1.25;0.80;;;;;;;;;;3586496;40;20032;-60
2021/08/07 08:11:51;;;;;;;0.88;0.65;;;;;;;;;;3585887;40;20033;-60
2021/08/07 08:14:17;;;;;;;0.85;0.70;;;;;;;;;;3586384;40;20064;-60
2021/08/07 08:16:45;;;;;;;1.33;0.90;;;;;;;;;;3586366;40;20031;-60
2021/08/07 08:19:11;;;;;;;0.95;0.70;;;;;;;;;;3586923;40;20407;-60
2021/08/07 08:21:36;;;;;;;1.08;0.88;;;;;;;;;;3585408;40;20051;-60
2021/08/07 08:24:02;;;;;;;1.10;0.80;;;;;;;;;;3586822;40;20040;-60
2021/08/07 08:26:27;;;;;;;1.40;1.02;;;;;;;;;;3585444;40;20032;-60
2021/08/07 08:28:54;;;;;;;1.02;0.70;;;;;;;;;;3585578;40;20033;-60
2021/08/07 08:31:19;;;;;;;1.23;0.75;;;;;;;;;;3585091;40;20032;-60
2021/08/07 08:33:44;;;;;;;1.77;1.13;;;;;;;;;;3586271;40;20029;-60
2021/08/07 08:36:11;;;;;;;1.17;0.80;;;;;;;;;;3582797;40;20129;-60
2021/08/07 08:38:36;;;;;;;0.80;0.60;;;;;;;;;;3586199;40;20054;-60
2021/08/07 08:41:02;;;;;;;1.25;0.88;;;;;;;;;;3586146;40;20373;-60
2021/08/07 08:43:28;;;;;;;1.15;0.85;;;;;;;;;;3586939;40;20036;-60
2021/08/07 08:45:53;;;;;;;2.05;1.08;;;;;;;;;;3586899;40;20028;-60
2021/08/07 08:48:19;;;;;;;1.40;1.02;;;;;;;;;;3586603;40;20521;-60
2021/08/07 08:50:47;;;;;;;1.70;1.05;;;;;;;;;;3585866;40;20052;-60
2021/08/07 08:53:12;;;;;;;1.17;0.90;;;;;;;;;;3586787;40;20040;-60
2021/08/07 08:55:39;;;;;;;1.13;0.82;;;;;;;;;;3586646;40;20125;-61
2021/08/07 08:58:04;;;;;;;1.98;1.20;;;;;;;;;;3586039;40;20051;-60
2021/08/07 09:00:30;;;;;;;1.35;0.90;;;;;;;;;;3586453;40;20040;-59
2021/08/07 09:02:55;;;;;;;1.27;0.98;;;;;;;;;;3586159;40;20133;-60
2021/08/07 09:05:21;;;;;;;1.23;1.00;;;;;;;;;;3586207;40;20376;-60
2021/08/07 09:07:47;;;;;;;0.98;0.80;;;;;;;;;;3586123;40;20032;-60
2021/08/07 09:10:14;;;;;;;1.65;1.10;;;;;;;;;;3586227;40;20510;-60
2021/08/07 09:12:49;;;;;;;0.82;0.70;;;;;;;;;;3586315;40;20240;-60
2021/08/07 09:15:23;;;;;;;0.90;0.70;;;;;;;;;;3585870;40;20028;-61
2021/08/07 09:17:49;;;;;;;1.65;1.10;;;;;;;;;;3586308;40;20036;-60
2021/08/07 09:20:26;;;;;;;1.25;0.90;;;;;;;;;;3585240;40;20498;-60
2021/08/07 09:22:51;;;;;;;1.40;1.00;;;;;;;;;;3585647;40;20049;-61
2021/08/07 09:25:17;;;;;;;1.45;1.10;;;;;;;;;;3586505;40;20048;-61
2021/08/07 09:27:47;;;;;;;1.52;0.88;;;;;;;;;;3586190;40;20045;-60
2021/08/07 09:30:13;;;;;;;1.75;1.23;;;;;;;;;;3586037;40;20029;-60
2021/08/07 09:32:47;;;;;;;1.17;0.85;;;;;;;;;;3585865;40;20351;-61
2021/08/07 09:35:16;;;;;;;1.33;0.95;;;;;;;;;;3587232;40;20088;-60
2021/08/07 09:37:42;;;;;;;0.90;0.73;;;;;;;;;;3587601;40;20036;-59
2021/08/07 09:40:10;;;;;;;1.10;0.70;;;;;;;;;;3587037;40;20050;-60
2021/08/07 09:42:53;;;;;;;1.20;0.80;;;;;;;;;;3585946;40;20048;-60
2021/08/07 09:45:23;;;;;;;2.95;1.20;;;;;;;;;;3588116;40;20500;-60
2021/08/07 09:47:58;;;;;;;1.00;0.70;;;;;;;;;;3585327;40;20045;-60
2021/08/07 09:50:27;;;;;;;1.15;0.85;;;;;;;;;;3587260;40;20048;-60
2021/08/07 09:52:53;;;;;;;1.02;0.80;;;;;;;;;;3587480;40;20091;-60
2021/08/07 09:55:19;;;;;;;1.25;0.82;;;;;;;;;;3587173;40;20369;-60
2021/08/07 09:57:44;;;;;;;0.90;0.60;;;;;;;;;;3588452;40;20059;-60
2021/08/07 10:00:10;;;;;;;1.10;0.80;;;;;;;;;;3587578;40;20129;-60
2021/08/07 10:02:37;;;;;;;0.75;0.55;;;;;;;;;;3586532;40;20060;-60
2021/08/07 10:05:11;;;;;;;1.17;0.80;;;;;;;;;;3587379;40;20040;-60
2021/08/07 10:07:37;;;;;;;0.52;0.50;;;;;;;;;;3586745;40;20032;-60
2021/08/07 10:10:23;;;;;;;1.58;1.10;;;;;;;;;;3587244;40;20056;-60
2021/08/07 10:12:49;;;;;;;1.27;0.90;;;;;;;;;;3587379;40;20045;-60
2021/08/07 10:15:14;;;;;;;1.92;1.27;;;;;;;;;;3586922;40;20037;-60
2021/08/07 10:17:40;;;;;;;2.10;1.38;;;;;;;;;;3587349;40;20056;-60
2021/08/07 10:20:06;;;;;;;1.10;0.80;;;;;;;;;;3587634;40;20033;-60
2021/08/07 10:22:32;;;;;;;1.98;1.10;;;;;;;;;;3586266;40;20140;-60
2021/08/07 10:25:02;;;;;;;2.10;1.40;;;;;;;;;;3586620;40;20380;-60
2021/08/07 10:27:30;;;;;;;0.70;0.57;;;;;;;;;;3587042;40;20043;-60
2021/08/07 10:29:59;;;;;;;0.77;0.60;;;;;;;;;;3587221;40;20032;-60
2021/08/07 10:32:25;;;;;;;1.00;0.70;;;;;;;;;;3587117;40;20052;-60
2021/08/07 10:34:52;;;;;;;1.77;0.93;;;;;;;;;;3586578;40;20309;-60
2021/08/07 10:37:18;;;;;;;1.08;0.75;;;;;;;;;;3587544;40;20071;-60
2021/08/07 10:39:44;;;;;;;0.77;0.57;;;;;;;;;;3586413;40;20045;-60
2021/08/07 10:42:14;;;;;;;0.70;0.55;;;;;;;;;;3586713;40;20037;-60
2021/08/07 10:44:43;;;;;;;0.82;0.65;;;;;;;;;;3586804;40;20056;-60
2021/08/07 10:47:08;;;;;;;1.67;0.95;;;;;;;;;;3587567;40;20048;-60
2021/08/07 10:49:37;;;;;;;1.33;0.90;;;;;;;;;;3587058;40;20178;-59
2021/08/07 10:52:21;;;;;;;1.75;0.98;;;;;;;;;;3586943;40;20059;-60
2021/08/07 10:54:47;;;;;;;1.73;1.13;;;;;;;;;;3587357;40;20040;-59
2021/08/07 10:57:34;;;;;;;0.73;0.55;;;;;;;;;;3586450;40;20044;-60
2021/08/07 10:59:59;;;;;;;1.42;0.85;;;;;;;;;;3586562;40;20083;-59
2021/08/07 11:02:25;;;;;;;1.13;0.88;;;;;;;;;;3585674;40;20040;-60
2021/08/07 11:04:51;;;;;;;1.90;0.98;;;;;;;;;;3586267;40;20036;-60
2021/08/07 11:07:21;;;;;;;0.90;0.68;;;;;;;;;;3586035;40;20480;-60
2021/08/07 11:10:07;;;;;;;1.30;0.90;;;;;;;;;;3585620;40;20409;-60
2021/08/07 11:12:32;;;;;;;0.77;0.57;;;;;;;;;;3586231;40;20149;-60
2021/08/07 11:15:01;;;;;;;0.70;0.60;;;;;;;;;;3586438;40;20399;-60
2021/08/07 11:17:33;;;;;;;0.98;0.75;;;;;;;;;;3586651;40;20359;-60
2021/08/07 11:20:07;;;;;;;0.60;0.50;;;;;;;;;;3587130;40;20029;-60
2021/08/07 11:22:32;;;;;;;0.85;0.57;;;;;;;;;;3586228;40;20050;-62
2021/08/07 11:25:00;;;;;;;0.90;0.55;;;;;;;;;;3583060;40;20463;-60
2021/08/07 11:27:44;;;;;;;0.98;0.70;;;;;;;;;;3586302;40;20489;-60
2021/08/07 11:30:32;;;;;;;0.70;0.50;;;;;;;;;;3586138;40;20047;-60
2021/08/07 11:33:09;;;;;;;1.45;0.88;;;;;;;;;;3587138;40;20052;-60
2021/08/07 11:35:45;;;;;;;1.40;0.90;;;;;;;;;;3584758;40;20426;-60
2021/08/07 11:38:13;;;;;;;1.10;0.82;;;;;;;;;;3586958;40;20045;-60
2021/08/07 11:41:08;;;;;;;3.33;1.02;;;;;;;;;;3586606;40;20043;-60
2021/08/07 11:43:40;;;;;;;2.95;2.05;;;;;;;;;;3586035;40;20102;-60
2021/08/07 11:46:11;;;;;;;2.60;1.35;;;;;;;;;;3586088;40;20029;-60
2021/08/07 11:48:38;;;;;;;1.23;0.88;;;;;;;;;;3586975;40;20036;-60
2021/08/07 11:51:06;;;;;;;1.73;1.27;;;;;;;;;;3586647;40;20284;-60
2021/08/07 11:53:33;;;;;;;0.75;0.68;;;;;;;;;;3585629;40;20048;-60
2021/08/07 11:56:07;;;;;;;1.27;0.90;;;;;;;;;;3585550;40;20060;-60
2021/08/07 11:58:40;;;;;;;0.73;0.55;;;;;;;;;;3585917;40;20048;-60
2021/08/07 12:01:06;;;;;;;1.60;1.13;;;;;;;;;;3586093;40;20060;-60
2021/08/07 12:03:44;;;;;;;1.95;1.25;;;;;;;;;;3586946;40;20275;-60
2021/08/07 12:06:11;;;;;;;2.15;1.58;;;;;;;;;;3586064;40;20028;-60
2021/08/07 12:08:37;;;;;;;1.20;0.80;;;;;;;;;;3586210;40;20068;-60
2021/08/07 12:11:11;;;;;;;0.82;0.65;;;;;;;;;;3586516;40;20047;-60
2021/08/07 12:13:38;;;;;;;1.70;0.80;;;;;;;;;;3586101;40;20064;-60
2021/08/07 12:16:12;;;;;;;0.90;0.70;;;;;;;;;;3586776;40;20350;-60
2021/08/07 12:18:38;;;;;;;1.20;0.80;;;;;;;;;;3586413;40;20032;-60
2021/08/07 12:21:04;;;;;;;0.75;0.60;;;;;;;;;;3586764;40;20037;-60
2021/08/07 12:23:44;;;;;;;0.80;0.60;;;;;;;;;;3585761;40;20064;-60
2021/08/07 12:26:10;;;;;;;0.90;0.60;;;;;;;;;;3587098;40;20073;-61
2021/08/07 12:28:35;;;;;;;0.98;0.60;;;;;;;;;;3586818;40;20040;-60
2021/08/07 12:31:02;;;;;;;1.23;0.82;;;;;;;;;;3585030;40;20061;-61
2021/08/07 12:33:40;;;;;;;0.82;0.75;;;;;;;;;;3586564;40;20391;-61
2021/08/07 12:36:17;;;;;;;1.10;0.80;;;;;;;;;;3586786;40;20036;-62
2021/08/07 12:38:46;;;;;;;1.20;0.90;;;;;;;;;;3585999;40;20455;-60
2021/08/07 12:41:21;;;;;;;0.80;0.60;;;;;;;;;;3585069;40;20040;-60
2021/08/07 12:43:47;;;;;;;1.15;0.80;;;;;;;;;;3586529;40;20585;-60
2021/08/07 12:46:15;;;;;;;2.03;0.90;;;;;;;;;;3586363;40;20166;-60
2021/08/07 12:48:56;;;;;;;2.83;1.63;;;;;;;;;;3586396;40;20441;-60
2021/08/07 12:51:26;;;;;;;0.90;0.65;;;;;;;;;;3585501;40;20040;-60
2021/08/07 12:53:52;;;;;;;1.42;1.00;;;;;;;;;;3584789;40;20054;-60
2021/08/07 12:56:18;;;;;;;1.20;0.90;;;;;;;;;;3585430;40;20037;-60
2021/08/07 12:59:06;;;;;;;1.30;0.90;;;;;;;;;;3585261;40;20469;-60
2021/08/07 13:01:38;;;;;;;0.90;0.70;;;;;;;;;;3585667;40;20048;-60
2021/08/07 13:04:04;;;;;;;1.20;0.88;;;;;;;;;;3586560;40;20073;-60
2021/08/07 13:06:32;;;;;;;0.73;0.52;;;;;;;;;;3585759;40;20079;-60
2021/08/07 13:09:27;;;;;;;1.20;0.82;;;;;;;;;;3585666;40;20422;-60
2021/08/07 13:12:09;;;;;;;0.88;0.65;;;;;;;;;;3586618;40;20312;-60
2021/08/07 13:14:36;;;;;;;1.70;1.08;;;;;;;;;;3585211;40;20060;-60
2021/08/07 13:17:02;;;;;;;0.77;0.60;;;;;;;;;;3586175;40;20081;-60
2021/08/07 13:19:37;;;;;;;2.08;1.02;;;;;;;;;;3585690;40;20040;-60
2021/08/07 13:22:13;;;;;;;1.40;0.90;;;;;;;;;;3584825;40;20048;-60
2021/08/07 13:24:41;;;;;;;0.40;0.40;;;;;;;;;;3585955;40;20077;-60
2021/08/07 13:27:09;;;;;;;1.58;1.00;;;;;;;;;;3585105;40;20025;-60
2021/08/07 13:29:34;;;;;;;1.30;0.77;;;;;;;;;;3585769;40;20072;-60
2021/08/07 13:32:15;;;;;;;1.08;0.80;;;;;;;;;;3586438;40;20543;-60
2021/08/07 13:34:41;;;;;;;0.50;0.40;;;;;;;;;;3585621;40;20372;-60
2021/08/07 13:37:06;;;;;;;2.38;0.85;;;;;;;;;;3583036;40;20044;-60
2021/08/07 13:39:35;;;;;;;5.80;1.20;;;;;;;;;;3581245;40;20093;-60
2021/08/07 13:42:01;;;;;;;0.93;0.70;;;;;;;;;;3584057;40;20312;-61
2021/08/07 13:44:26;;;;;;;0.90;0.70;;;;;;;;;;3582813;40;20044;-61
2021/08/07 13:46:51;;;;;;;1.77;1.25;;;;;;;;;;3583629;40;20043;-61
2021/08/07 13:49:17;;;;;;;1.30;0.95;;;;;;;;;;3584670;40;20052;-61
2021/08/07 13:51:42;;;;;;;1.00;0.70;;;;;;;;;;3584600;40;20039;-61
2021/08/07 13:54:08;;;;;;;0.73;0.60;;;;;;;;;;3585316;40;20070;-61
2021/08/07 13:56:33;;;;;;;1.67;0.70;;;;;;;;;;3585085;40;20036;-61
2021/08/07 13:58:59;;;;;;;0.85;0.70;;;;;;;;;;3584101;40;20510;-61
2021/08/07 14:01:25;;;;;;;0.93;0.70;;;;;;;;;;3584107;40;20137;-61
2021/08/07 14:03:52;;;;;;;0.82;0.60;;;;;;;;;;3585485;40;20025;-60
2021/08/07 14:06:20;;;;;;;0.82;0.60;;;;;;;;;;3585017;40;20118;-61
2021/08/07 14:08:46;;;;;;;0.88;0.65;;;;;;;;;;3583090;40;20040;-60
2021/08/07 14:11:11;;;;;;;1.63;1.05;;;;;;;;;;3585185;40;20088;-61
2021/08/07 14:13:37;;;;;;;0.70;0.60;;;;;;;;;;3584442;40;20418;-60
2021/08/07 14:16:02;;;;;;;1.35;0.90;;;;;;;;;;3583870;40;20028;-60
2021/08/07 14:18:28;;;;;;;0.80;0.68;;;;;;;;;;3584131;40;20037;-60
2021/08/07 14:20:53;;;;;;;1.20;0.82;;;;;;;;;;3585964;40;20047;-60
2021/08/07 14:23:19;;;;;;;1.00;0.70;;;;;;;;;;3587520;40;20043;-60
2021/08/07 14:25:44;;;;;;;3.78;1.00;;;;;;;;;;3586272;40;20372;-60
2021/08/07 14:28:10;;;;;;;0.85;0.70;;;;;;;;;;3586458;40;20583;-60
2021/08/07 14:30:35;;;;;;;2.42;1.10;;;;;;;;;;3582115;40;20131;-61
2021/08/07 14:33:01;;;;;;;1.13;0.82;;;;;;;;;;3586152;40;20033;-60
2021/08/07 14:35:26;;;;;;;1.55;1.00;;;;;;;;;;3586597;40;20142;-60
2021/08/07 14:37:52;;;;;;;1.08;0.75;;;;;;;;;;3586470;40;20033;-60
2021/08/07 14:40:18;;;;;;;0.90;0.73;;;;;;;;;;3585206;40;20052;-61
2021/08/07 14:42:43;;;;;;;0.88;0.57;;;;;;;;;;3584774;40;20040;-60